Time;durP1;ratioP1;P1;durP2;ratioP2;P2;SDS_P1;SDS_P2;PMS_P1;PMS_P2;Temp;Humidity;BMP_temperature;BMP_pressure;BME280_temperature;BME280_humidity;BME280_pressure;Samples;Min_cycle;Max_cycle;Signal;HPM_P1;HPM_P2
2023/10/21 00:04:54;;;;;;;0.40;0.30;;;;;;;;;;12851761;23;20111;-78
2023/10/21 00:09:58;;;;;;;0.88;0.57;;;;;;;;;;12866468;23;20025;-78
2023/10/21 00:15:05;;;;;;;0.75;0.55;;;;;;;;;;12851905;23;20032;-77
2023/10/21 00:20:09;;;;;;;0.63;0.30;;;;;;;;;;12867181;23;20035;-77
2023/10/21 00:25:12;;;;;;;1.48;0.60;;;;;;;;;;12850161;23;20079;-77
2023/10/21 00:30:24;;;;;;;2.20;0.50;;;;;;;;;;12868797;23;20400;-79
2023/10/21 00:35:27;;;;;;;0.50;0.50;;;;;;;;;;12853459;23;20047;-78
2023/10/21 00:40:31;;;;;;;0.55;0.55;;;;;;;;;;12869143;23;20029;-78
2023/10/21 00:45:37;;;;;;;0.38;0.38;;;;;;;;;;12867274;23;20025;-78
2023/10/21 00:50:48;;;;;;;0.60;0.60;;;;;;;;;;12867093;23;20035;-78
2023/10/21 00:55:55;;;;;;;1.35;0.70;;;;;;;;;;12850596;23;20024;-78
2023/10/21 01:01:02;;;;;;;;;;;;;;;;;;12854451;23;20067;-78
2023/10/21 01:06:07;;;;;;;0.60;0.50;;;;;;;;;;12865019;23;19919;-78
2023/10/21 01:11:11;;;;;;;0.47;0.45;;;;;;;;;;12852981;23;20024;-78
2023/10/21 01:16:20;;;;;;;1.05;0.40;;;;;;;;;;12828281;23;20024;-78
2023/10/21 01:21:26;;;;;;;0.50;0.40;;;;;;;;;;12856843;23;20051;-78
2023/10/21 01:26:31;;;;;;;0.68;0.47;;;;;;;;;;12843695;23;20213;-78
2023/10/21 01:31:34;;;;;;;0.57;0.52;;;;;;;;;;12867634;23;20029;-78
2023/10/21 01:36:38;;;;;;;0.90;0.60;;;;;;;;;;12853894;23;20024;-78
2023/10/21 01:41:43;;;;;;;1.35;0.60;;;;;;;;;;12863984;23;20021;-78
2023/10/21 01:46:46;;;;;;;1.05;0.50;;;;;;;;;;12917343;22;20709;-78
2023/10/21 01:51:50;;;;;;;1.50;0.60;;;;;;;;;;12957835;22;20414;-78
2023/10/21 01:56:54;;;;;;;0.30;0.30;;;;;;;;;;12957752;22;20027;-78
2023/10/21 02:01:58;;;;;;;0.60;0.55;;;;;;;;;;12957326;22;20019;-78
2023/10/21 02:07:02;;;;;;;0.50;0.50;;;;;;;;;;12955080;22;20028;-77
2023/10/21 02:12:10;;;;;;;0.20;0.20;;;;;;;;;;12987923;22;20034;-78
2023/10/21 02:17:13;;;;;;;0.20;0.20;;;;;;;;;;12997113;22;20102;-78
2023/10/21 02:22:17;;;;;;;0.22;0.20;;;;;;;;;;12973311;22;20030;-77
2023/10/21 02:27:22;;;;;;;2.00;0.40;;;;;;;;;;12992069;22;20022;-78
2023/10/21 02:32:25;;;;;;;0.10;0.10;;;;;;;;;;12955008;22;20012;-77
2023/10/21 02:37:29;;;;;;;0.30;0.30;;;;;;;;;;12955663;22;20023;-77
2023/10/21 02:42:34;;;;;;;0.10;0.10;;;;;;;;;;12985836;22;20031;-77
2023/10/21 02:47:38;;;;;;;0.20;0.20;;;;;;;;;;12974379;22;20027;-78
2023/10/21 02:52:51;;;;;;;0.45;0.10;;;;;;;;;;12945687;22;20047;-78
2023/10/21 02:57:56;;;;;;;0.20;0.10;;;;;;;;;;12986098;22;20098;-78
2023/10/21 03:03:03;;;;;;;1.52;0.20;;;;;;;;;;12984721;22;20019;-78
2023/10/21 03:08:09;;;;;;;0.68;0.30;;;;;;;;;;12983573;22;20024;-77
2023/10/21 03:13:14;;;;;;;0.90;0.20;;;;;;;;;;12982928;22;20081;-78
2023/10/21 03:18:19;;;;;;;0.88;0.20;;;;;;;;;;12981615;22;20024;-78
2023/10/21 03:23:23;;;;;;;0.10;0.10;;;;;;;;;;12981689;22;20478;-78
2023/10/21 03:28:28;;;;;;;0.20;0.20;;;;;;;;;;12981954;22;20215;-78
2023/10/21 03:33:32;;;;;;;0.22;0.20;;;;;;;;;;12980482;22;20027;-77
2023/10/21 03:38:37;;;;;;;0.43;0.17;;;;;;;;;;12951765;22;20024;-77
2023/10/21 03:43:42;;;;;;;0.40;0.20;;;;;;;;;;12999719;22;20022;-77
2023/10/21 03:48:46;;;;;;;0.10;0.10;;;;;;;;;;12999524;22;20074;-77
2023/10/21 03:53:49;;;;;;;2.90;0.28;;;;;;;;;;12977103;22;20027;-77
2023/10/21 03:58:54;;;;;;;0.65;0.20;;;;;;;;;;12978318;22;20031;-77
2023/10/21 04:03:58;;;;;;;0.45;0.20;;;;;;;;;;13001122;22;20467;-77
2023/10/21 04:09:01;;;;;;;0.10;0.10;;;;;;;;;;13001793;22;20374;-77
2023/10/21 04:14:06;;;;;;;1.30;0.20;;;;;;;;;;13001024;22;20023;-77
2023/10/21 04:19:09;;;;;;;0.10;0.10;;;;;;;;;;12987225;22;20024;-77
2023/10/21 04:24:15;;;;;;;0.20;0.20;;;;;;;;;;13005292;22;20027;-77
2023/10/21 04:29:19;;;;;;;0.30;0.20;;;;;;;;;;13003400;22;20106;-77
2023/10/21 04:34:23;;;;;;;0.40;0.20;;;;;;;;;;12999601;22;20023;-77
2023/10/21 04:39:28;;;;;;;0.10;0.10;;;;;;;;;;13000952;22;20023;-77
2023/10/21 04:44:33;;;;;;;0.10;0.10;;;;;;;;;;12999961;22;20417;-77
2023/10/21 04:49:36;;;;;;;0.10;0.10;;;;;;;;;;12956166;22;20107;-77
2023/10/21 04:54:40;;;;;;;0.10;0.10;;;;;;;;;;12954267;22;20020;-77
2023/10/21 04:59:45;;;;;;;0.13;0.10;;;;;;;;;;12999506;22;20513;-77
2023/10/21 05:04:50;;;;;;;0.10;0.10;;;;;;;;;;12999851;22;20027;-77
2023/10/21 05:09:53;;;;;;;0.10;0.10;;;;;;;;;;12983439;22;20027;-78
2023/10/21 05:14:58;;;;;;;0.20;0.10;;;;;;;;;;12998204;22;20459;-77
2023/10/21 05:20:02;;;;;;;0.75;0.15;;;;;;;;;;12981515;22;20081;-77
2023/10/21 05:25:07;;;;;;;0.20;0.20;;;;;;;;;;12997241;22;20107;-77
2023/10/21 05:30:14;;;;;;;0.20;0.10;;;;;;;;;;12996130;22;20032;-77
2023/10/21 05:35:17;;;;;;;;;;;;;;;;;;12996456;22;20028;-77
2023/10/21 05:40:20;;;;;;;0.98;0.28;;;;;;;;;;12995736;22;20689;-77
2023/10/21 05:45:25;;;;;;;0.85;0.20;;;;;;;;;;12996124;22;20028;-78
2023/10/21 05:50:32;;;;;;;0.43;0.30;;;;;;;;;;12983372;22;20081;-78
2023/10/21 05:55:41;;;;;;;0.47;0.20;;;;;;;;;;12980935;22;20043;-77
2023/10/21 06:00:46;;;;;;;0.22;0.20;;;;;;;;;;12954816;22;20023;-78
2023/10/21 06:05:49;;;;;;;0.55;0.22;;;;;;;;;;12954592;22;20054;-78
2023/10/21 06:10:54;;;;;;;0.93;0.30;;;;;;;;;;12992870;22;20024;-77
2023/10/21 06:15:59;;;;;;;0.93;0.30;;;;;;;;;;13007340;22;20050;-78
2023/10/21 06:21:02;;;;;;;1.27;0.50;;;;;;;;;;13002616;22;20028;-77
2023/10/21 06:26:11;;;;;;;0.32;0.30;;;;;;;;;;12992755;22;20023;-77
2023/10/21 06:31:16;;;;;;;1.00;0.30;;;;;;;;;;12981158;22;20058;-77
2023/10/21 06:36:19;;;;;;;0.20;0.20;;;;;;;;;;12990134;22;20027;-77
2023/10/21 06:41:23;;;;;;;0.20;0.20;;;;;;;;;;12990165;22;20019;-77
2023/10/21 06:46:28;;;;;;;2.08;0.20;;;;;;;;;;12978816;22;20028;-77
2023/10/21 06:51:31;;;;;;;1.57;0.20;;;;;;;;;;12980799;22;20443;-77
2023/10/21 06:56:37;;;;;;;1.42;0.30;;;;;;;;;;12988199;22;20020;-77
2023/10/21 07:01:42;;;;;;;0.20;0.20;;;;;;;;;;12987982;22;20027;-77
2023/10/21 07:06:48;;;;;;;0.20;0.20;;;;;;;;;;12988288;22;20081;-77
2023/10/21 07:11:51;;;;;;;0.30;0.30;;;;;;;;;;12982320;22;20043;-77
2023/10/21 07:16:56;;;;;;;0.20;0.20;;;;;;;;;;12987440;22;20077;-77
2023/10/21 07:21:59;;;;;;;0.30;0.30;;;;;;;;;;12977385;22;20050;-77
2023/10/21 07:27:03;;;;;;;0.22;0.10;;;;;;;;;;12985590;22;20028;-77
2023/10/21 07:32:08;;;;;;;0.47;0.20;;;;;;;;;;12985919;22;20019;-77
2023/10/21 07:37:11;;;;;;;0.63;0.30;;;;;;;;;;12985256;22;20062;-77
2023/10/21 07:42:14;;;;;;;0.52;0.50;;;;;;;;;;12952066;22;20020;-77
2023/10/21 07:47:20;;;;;;;0.45;0.40;;;;;;;;;;12984607;22;20034;-77
2023/10/21 07:52:24;;;;;;;0.30;0.30;;;;;;;;;;12981747;22;20020;-77
2023/10/21 07:57:28;;;;;;;0.47;0.30;;;;;;;;;;12977989;22;20023;-77
2023/10/21 08:02:34;;;;;;;0.70;0.30;;;;;;;;;;12976460;22;20028;-76
2023/10/21 08:07:38;;;;;;;1.13;0.30;;;;;;;;;;12978171;22;20743;-77
2023/10/21 08:12:41;;;;;;;0.20;0.20;;;;;;;;;;12980819;22;20077;-77
2023/10/21 08:17:46;;;;;;;0.63;0.10;;;;;;;;;;12950139;22;20024;-77
2023/10/21 08:22:50;;;;;;;1.85;0.20;;;;;;;;;;12975142;22;20019;-77
2023/10/21 08:27:53;;;;;;;1.10;0.28;;;;;;;;;;12949506;22;20031;-78
2023/10/21 08:32:58;;;;;;;1.15;0.40;;;;;;;;;;12975703;22;20362;-77
2023/10/21 08:38:03;;;;;;;1.35;0.40;;;;;;;;;;12979736;22;20027;-77
2023/10/21 08:43:09;;;;;;;1.85;0.60;;;;;;;;;;12974945;22;20024;-77
2023/10/21 08:48:16;;;;;;;1.33;0.73;;;;;;;;;;12976698;22;20019;-76
2023/10/21 08:53:25;;;;;;;0.35;0.28;;;;;;;;;;12980458;22;20034;-77
2023/10/21 08:58:32;;;;;;;0.98;0.32;;;;;;;;;;12978714;22;20035;-77
2023/10/21 09:03:38;;;;;;;0.40;0.25;;;;;;;;;;12978579;22;20078;-77
2023/10/21 09:08:43;;;;;;;2.80;0.60;;;;;;;;;;12951995;22;20061;-76
2023/10/21 09:13:48;;;;;;;1.10;0.40;;;;;;;;;;13000011;22;20353;-76
2023/10/21 09:19:01;;;;;;;0.67;0.30;;;;;;;;;;12999235;22;20069;-77
2023/10/21 09:24:05;;;;;;;0.80;0.30;;;;;;;;;;12997564;22;20024;-77
2023/10/21 09:29:11;;;;;;;1.02;0.50;;;;;;;;;;12998111;22;20027;-77
2023/10/21 09:34:26;;;;;;;3.42;0.50;;;;;;;;;;12997164;22;20367;-77
2023/10/21 09:39:32;;;;;;;0.60;0.30;;;;;;;;;;12996964;22;20023;-76
2023/10/21 09:44:38;;;;;;;1.85;0.60;;;;;;;;;;12978831;22;20478;-76
2023/10/21 09:49:45;;;;;;;0.90;0.50;;;;;;;;;;12979114;22;20501;-76
2023/10/21 09:54:56;;;;;;;1.88;0.63;;;;;;;;;;12993961;22;20030;-77
2023/10/21 10:00:00;;;;;;;1.67;0.50;;;;;;;;;;12950601;22;20058;-76
2023/10/21 10:05:09;;;;;;;1.42;0.40;;;;;;;;;;12977803;22;20344;-77
2023/10/21 10:10:14;;;;;;;2.25;0.50;;;;;;;;;;12991392;22;20038;-77
2023/10/21 10:15:29;;;;;;;2.10;0.50;;;;;;;;;;12991255;22;20126;-76
2023/10/21 10:20:35;;;;;;;1.17;0.50;;;;;;;;;;12990079;22;20050;-76
2023/10/21 10:25:40;;;;;;;0.57;0.20;;;;;;;;;;12989410;22;20023;-76
2023/10/21 10:30:44;;;;;;;1.93;0.60;;;;;;;;;;12989127;22;20038;-76
2023/10/21 10:35:51;;;;;;;1.75;0.55;;;;;;;;;;12988230;22;20031;-76
2023/10/21 10:41:05;;;;;;;2.58;0.60;;;;;;;;;;12987855;22;20371;-76
2023/10/21 10:46:09;;;;;;;1.30;0.50;;;;;;;;;;12974808;22;20023;-76
2023/10/21 10:51:15;;;;;;;2.42;0.60;;;;;;;;;;12984380;22;20028;-76
2023/10/21 10:56:19;;;;;;;1.42;0.47;;;;;;;;;;12983998;22;20034;-76
2023/10/21 11:01:26;;;;;;;1.13;0.47;;;;;;;;;;12948096;22;20023;-77
2023/10/21 11:06:36;;;;;;;1.35;0.40;;;;;;;;;;12984294;22;20030;-76
2023/10/21 11:11:46;;;;;;;1.25;0.40;;;;;;;;;;12976423;22;20098;-77
2023/10/21 11:16:50;;;;;;;2.58;0.52;;;;;;;;;;12983246;22;20049;-77
2023/10/21 11:21:55;;;;;;;1.92;0.50;;;;;;;;;;12975959;22;20038;-76
2023/10/21 11:27:00;;;;;;;1.40;0.40;;;;;;;;;;12972860;22;20513;-76
2023/10/21 11:32:04;;;;;;;1.48;0.40;;;;;;;;;;12947258;22;20024;-76
2023/10/21 11:37:12;;;;;;;2.10;0.60;;;;;;;;;;12979865;22;20031;-76
2023/10/21 11:42:17;;;;;;;1.35;0.50;;;;;;;;;;12978250;22;20494;-76
2023/10/21 11:47:24;;;;;;;3.33;0.63;;;;;;;;;;12974501;22;20038;-76
2023/10/21 11:52:29;;;;;;;1.80;0.47;;;;;;;;;;12976854;22;20393;-77
2023/10/21 11:57:56;;;;;;;2.33;0.80;;;;;;;;;;12980265;22;20024;-76
2023/10/21 12:14:24;;;;;;;2.40;0.70;;;;;;;;;;12973961;22;20039;-76
2023/10/21 12:19:43;;;;;;;1.42;0.70;;;;;;;;;;12990213;22;20030;-76
2023/10/21 12:36:22;;;;;;;4.60;1.00;;;;;;;;;;10507274;27;1983027;-74
2023/10/21 12:41:28;;;;;;;1.92;0.70;;;;;;;;;;10494591;28;20048;-75
2023/10/21 12:46:38;;;;;;;1.33;0.68;;;;;;;;;;10535161;28;20048;-75
2023/10/21 12:51:43;;;;;;;2.05;0.60;;;;;;;;;;10526377;28;20086;-75
2023/10/21 12:56:49;;;;;;;1.02;0.50;;;;;;;;;;10538234;28;20047;-75
2023/10/21 13:01:53;;;;;;;2.10;0.70;;;;;;;;;;10525389;28;20532;-75
2023/10/21 13:07:00;;;;;;;4.63;0.88;;;;;;;;;;10526867;28;20043;-74
2023/10/21 13:12:14;;;;;;;2.67;0.60;;;;;;;;;;10534912;28;20036;-75
2023/10/21 13:17:18;;;;;;;3.00;0.93;;;;;;;;;;10537397;28;20044;-75
2023/10/21 13:22:24;;;;;;;1.60;0.53;;;;;;;;;;10536918;28;20040;-75
2023/10/21 13:27:27;;;;;;;5.38;1.30;;;;;;;;;;10531753;28;20044;-74
2023/10/21 13:32:31;;;;;;;1.70;0.57;;;;;;;;;;10526848;28;20048;-75
2023/10/21 13:37:36;;;;;;;3.85;0.93;;;;;;;;;;10538283;28;20059;-75
2023/10/21 13:42:40;;;;;;;2.60;0.80;;;;;;;;;;10529981;23;20057;-74
2023/10/21 13:47:44;;;;;;;1.92;0.40;;;;;;;;;;10323122;28;20053;-74
2023/10/21 13:52:49;;;;;;;2.53;0.60;;;;;;;;;;10297246;28;20046;-74
2023/10/21 13:57:53;;;;;;;1.38;0.50;;;;;;;;;;10291159;28;20047;-76
2023/10/21 14:02:56;;;;;;;1.90;0.70;;;;;;;;;;10289355;28;20074;-76
2023/10/21 14:08:05;;;;;;;1.45;0.50;;;;;;;;;;10294610;28;20459;-74
2023/10/21 14:13:12;;;;;;;1.38;0.50;;;;;;;;;;10296007;28;20127;-74
2023/10/21 14:18:15;;;;;;;0.98;0.35;;;;;;;;;;10296542;28;20035;-74
2023/10/21 14:23:21;;;;;;;2.17;0.50;;;;;;;;;;10291401;28;20043;-74
2023/10/21 14:28:26;;;;;;;1.98;0.52;;;;;;;;;;10293770;28;20050;-74
2023/10/21 14:33:31;;;;;;;3.92;0.80;;;;;;;;;;10301266;28;20043;-74
2023/10/21 14:38:35;;;;;;;1.58;0.50;;;;;;;;;;10293763;28;20070;-74
2023/10/21 14:43:39;;;;;;;0.85;0.40;;;;;;;;;;10294909;28;20046;-75
2023/10/21 14:48:42;;;;;;;2.22;0.90;;;;;;;;;;10300478;28;20050;-74
2023/10/21 14:53:47;;;;;;;1.95;0.55;;;;;;;;;;10288056;28;20074;-74
2023/10/21 14:58:50;;;;;;;0.95;0.40;;;;;;;;;;10280110;28;20047;-74
2023/10/21 15:03:53;;;;;;;2.80;0.80;;;;;;;;;;10296723;28;20050;-74
2023/10/21 15:08:58;;;;;;;1.27;0.45;;;;;;;;;;10287574;28;20057;-74
2023/10/21 15:14:01;;;;;;;1.08;0.47;;;;;;;;;;10284085;28;20050;-74
2023/10/21 15:19:05;;;;;;;1.83;0.60;;;;;;;;;;10290477;28;20057;-74
2023/10/21 15:24:10;;;;;;;2.28;0.70;;;;;;;;;;10280240;28;20488;-74
2023/10/21 15:29:13;;;;;;;2.10;0.70;;;;;;;;;;10286420;28;20063;-74
2023/10/21 15:34:17;;;;;;;1.65;0.73;;;;;;;;;;10294313;28;20047;-76
2023/10/21 15:39:22;;;;;;;1.83;0.80;;;;;;;;;;10281504;28;20038;-74
2023/10/21 15:44:25;;;;;;;3.05;1.00;;;;;;;;;;10283854;28;20043;-76
2023/10/21 15:49:28;;;;;;;2.45;1.00;;;;;;;;;;10287800;28;20073;-74
2023/10/21 15:54:33;;;;;;;3.03;1.13;;;;;;;;;;10280727;28;20039;-74
2023/10/21 15:59:36;;;;;;;3.42;1.02;;;;;;;;;;10285812;28;20654;-74
2023/10/21 16:04:39;;;;;;;3.42;0.90;;;;;;;;;;10273698;28;20051;-74
2023/10/21 16:09:44;;;;;;;1.90;0.93;;;;;;;;;;10286060;28;20078;-74
2023/10/21 16:14:48;;;;;;;4.07;1.35;;;;;;;;;;10285353;28;20046;-74
2023/10/21 16:19:52;;;;;;;1.55;0.95;;;;;;;;;;10285624;28;20558;-74
2023/10/21 16:24:57;;;;;;;2.38;1.20;;;;;;;;;;10279132;28;20089;-74
2023/10/21 16:30:00;;;;;;;3.13;1.20;;;;;;;;;;10281257;28;20038;-76
2023/10/21 16:35:05;;;;;;;2.65;1.27;;;;;;;;;;10274047;28;20047;-74
2023/10/21 16:40:13;;;;;;;4.25;1.17;;;;;;;;;;10287189;28;20054;-74
2023/10/21 16:45:16;;;;;;;3.88;1.60;;;;;;;;;;10282022;28;20551;-74
2023/10/21 16:50:20;;;;;;;3.47;1.38;;;;;;;;;;10280183;28;20063;-75
2023/10/21 16:55:24;;;;;;;1.63;0.68;;;;;;;;;;10278381;28;20043;-75
2023/10/21 17:00:28;;;;;;;2.40;0.90;;;;;;;;;;10284699;28;20078;-75
2023/10/21 17:05:31;;;;;;;1.42;0.60;;;;;;;;;;10283580;28;20046;-75
2023/10/21 17:10:36;;;;;;;2.95;0.98;;;;;;;;;;10276771;28;20706;-74
2023/10/21 17:15:39;;;;;;;2.90;0.93;;;;;;;;;;10273491;28;20039;-75
2023/10/21 17:20:43;;;;;;;4.22;1.20;;;;;;;;;;10288299;28;20146;-75
2023/10/21 17:25:48;;;;;;;1.55;1.05;;;;;;;;;;10276084;28;20538;-75
2023/10/21 17:30:51;;;;;;;4.75;1.17;;;;;;;;;;10289595;28;20047;-75
2023/10/21 17:35:55;;;;;;;3.30;1.10;;;;;;;;;;10293217;28;20442;-75
2023/10/21 17:40:59;;;;;;;1.98;1.00;;;;;;;;;;10285982;28;20046;-75
2023/10/21 17:46:04;;;;;;;2.38;0.93;;;;;;;;;;10291915;28;20444;-75
2023/10/21 17:51:07;;;;;;;2.90;0.80;;;;;;;;;;10285257;28;20114;-75
2023/10/21 17:56:12;;;;;;;2.30;0.75;;;;;;;;;;10289761;28;20049;-75
2023/10/21 18:01:15;;;;;;;1.58;0.85;;;;;;;;;;10285472;28;20500;-75
2023/10/21 18:06:19;;;;;;;2.05;0.90;;;;;;;;;;10287743;28;20043;-75
2023/10/21 18:11:23;;;;;;;2.58;0.90;;;;;;;;;;10288348;28;20397;-75
2023/10/21 18:16:27;;;;;;;2.67;0.93;;;;;;;;;;10291228;28;20050;-75
2023/10/21 18:21:30;;;;;;;1.80;0.68;;;;;;;;;;10279453;28;20089;-75
2023/10/21 18:26:35;;;;;;;2.45;1.10;;;;;;;;;;10288682;28;20054;-75
2023/10/21 18:31:38;;;;;;;1.55;0.57;;;;;;;;;;10290184;28;20791;-75
2023/10/21 18:36:41;;;;;;;2.03;0.82;;;;;;;;;;10284120;28;20114;-75
2023/10/21 18:41:47;;;;;;;3.00;0.95;;;;;;;;;;10287937;28;20077;-75
2023/10/21 18:46:50;;;;;;;3.80;1.02;;;;;;;;;;10282625;28;20045;-75
2023/10/21 18:51:53;;;;;;;1.98;1.15;;;;;;;;;;10279762;28;20130;-75
2023/10/21 18:56:58;;;;;;;2.67;1.10;;;;;;;;;;10282935;28;20051;-75
2023/10/21 19:02:02;;;;;;;5.32;1.15;;;;;;;;;;10275904;28;20591;-75
2023/10/21 19:07:05;;;;;;;3.67;1.83;;;;;;;;;;10285042;28;20478;-75
2023/10/21 19:12:10;;;;;;;2.80;1.42;;;;;;;;;;10280395;28;20043;-75
2023/10/21 19:17:13;;;;;;;2.58;1.05;;;;;;;;;;10290729;28;20543;-76
2023/10/21 19:22:17;;;;;;;2.28;1.02;;;;;;;;;;10284857;28;20041;-76
2023/10/21 19:27:21;;;;;;;3.20;1.00;;;;;;;;;;10280640;28;20042;-75
2023/10/21 19:32:24;;;;;;;2.10;0.90;;;;;;;;;;10277319;28;20074;-75
2023/10/21 19:37:29;;;;;;;3.10;0.90;;;;;;;;;;10288051;28;20435;-75
2023/10/21 19:42:33;;;;;;;1.58;0.82;;;;;;;;;;10299240;23;20057;-75
2023/10/21 19:47:37;;;;;;;2.00;0.85;;;;;;;;;;10365342;28;20046;-75
2023/10/21 19:52:40;;;;;;;2.45;1.23;;;;;;;;;;10376172;28;20038;-75
2023/10/21 19:57:45;;;;;;;2.40;1.00;;;;;;;;;;10370919;28;20042;-75
2023/10/21 20:02:48;;;;;;;2.20;1.20;;;;;;;;;;10371453;28;20044;-75
2023/10/21 20:07:52;;;;;;;3.58;1.23;;;;;;;;;;10373111;28;20045;-75
2023/10/21 20:12:57;;;;;;;2.13;0.90;;;;;;;;;;10368835;28;20481;-75
2023/10/21 20:18:01;;;;;;;2.53;0.88;;;;;;;;;;10368616;28;20042;-75
2023/10/21 20:23:04;;;;;;;2.03;0.82;;;;;;;;;;10362396;28;20042;-75
2023/10/21 20:28:09;;;;;;;2.80;1.17;;;;;;;;;;10370134;28;20099;-76
2023/10/21 20:33:13;;;;;;;2.20;1.02;;;;;;;;;;10367355;28;20100;-75
2023/10/21 20:38:17;;;;;;;2.72;0.82;;;;;;;;;;10365091;28;20042;-75
2023/10/21 20:43:22;;;;;;;2.45;1.10;;;;;;;;;;10359997;28;20104;-75
2023/10/21 20:48:27;;;;;;;2.75;0.95;;;;;;;;;;10368030;28;20184;-75
2023/10/21 20:53:32;;;;;;;1.58;0.80;;;;;;;;;;10364656;28;20396;-75
2023/10/21 20:58:37;;;;;;;2.20;0.75;;;;;;;;;;10374239;28;20045;-75
2023/10/21 21:03:42;;;;;;;2.53;0.80;;;;;;;;;;10372051;28;20049;-75
2023/10/21 21:08:45;;;;;;;2.42;0.80;;;;;;;;;;10373239;28;20121;-76
2023/10/21 21:13:50;;;;;;;2.28;1.05;;;;;;;;;;10372125;28;20042;-75
2023/10/21 21:18:54;;;;;;;4.00;1.20;;;;;;;;;;10374215;28;20058;-76
2023/10/21 21:23:57;;;;;;;2.70;0.93;;;;;;;;;;10374005;28;20100;-75
2023/10/21 21:29:04;;;;;;;1.45;0.73;;;;;;;;;;10373396;28;20539;-76
2023/10/21 21:34:07;;;;;;;;;;;;;;;;;;10372163;28;20064;-75
2023/10/21 21:39:13;;;;;;;2.38;1.00;;;;;;;;;;10371707;28;20040;-75
2023/10/21 21:44:18;;;;;;;5.10;0.80;;;;;;;;;;10369373;28;20435;-76
2023/10/21 21:49:21;;;;;;;3.45;0.98;;;;;;;;;;10378743;28;20057;-75
2023/10/21 21:54:25;;;;;;;2.17;0.80;;;;;;;;;;10377373;28;20050;-75
2023/10/21 21:59:30;;;;;;;2.42;0.57;;;;;;;;;;10374385;28;20046;-75
2023/10/21 22:04:33;;;;;;;1.30;0.60;;;;;;;;;;10375465;28;20050;-75
2023/10/21 22:09:38;;;;;;;1.45;0.60;;;;;;;;;;10376365;28;20089;-76
2023/10/21 22:14:43;;;;;;;1.63;0.90;;;;;;;;;;10371288;28;20041;-75
2023/10/21 22:19:46;;;;;;;2.75;0.63;;;;;;;;;;10374336;28;20049;-75
2023/10/21 22:24:50;;;;;;;3.03;1.00;;;;;;;;;;10372730;28;20482;-76
2023/10/21 22:29:55;;;;;;;1.48;0.90;;;;;;;;;;10370571;28;20069;-75
2023/10/21 22:35:00;;;;;;;1.45;0.52;;;;;;;;;;10371465;28;20038;-75
2023/10/21 22:40:08;;;;;;;2.60;0.70;;;;;;;;;;10368191;28;20041;-75
2023/10/21 22:45:14;;;;;;;1.98;0.60;;;;;;;;;;10370919;28;20053;-75
2023/10/21 22:50:21;;;;;;;1.92;0.90;;;;;;;;;;10368086;28;20044;-75
2023/10/21 22:55:24;;;;;;;1.70;0.60;;;;;;;;;;10367219;28;20069;-75
2023/10/21 23:00:29;;;;;;;1.20;0.47;;;;;;;;;;10369076;28;20046;-75
2023/10/21 23:05:35;;;;;;;3.95;0.90;;;;;;;;;;10366340;28;20049;-75
2023/10/21 23:10:39;;;;;;;1.88;0.75;;;;;;;;;;10369546;28;20045;-76
2023/10/21 23:15:45;;;;;;;2.25;0.65;;;;;;;;;;10369840;28;20050;-75
2023/10/21 23:20:48;;;;;;;0.70;0.60;;;;;;;;;;10367798;28;20049;-75
2023/10/21 23:25:53;;;;;;;1.40;0.60;;;;;;;;;;10370164;28;20054;-75
2023/10/21 23:30:57;;;;;;;1.77;0.98;;;;;;;;;;10373277;28;20049;-76
2023/10/21 23:36:02;;;;;;;1.83;0.70;;;;;;;;;;10372222;28;20173;-75
2023/10/21 23:41:07;;;;;;;4.22;0.77;;;;;;;;;;10360689;28;20038;-76
2023/10/21 23:46:12;;;;;;;2.83;0.60;;;;;;;;;;10364005;28;20054;-75
2023/10/21 23:51:15;;;;;;;4.22;1.08;;;;;;;;;;10364047;28;20049;-75
2023/10/21 23:56:21;;;;;;;2.03;0.70;;;;;;;;;;10364957;28;20046;-75
